Time;durP1;ratioP1;P1;durP2;ratioP2;P2;SDS_P1;SDS_P2;PMS_P1;PMS_P2;Temp;Humidity;BMP_temperature;BMP_pressure;BME280_temperature;BME280_humidity;BME280_pressure;Samples;Min_cycle;Max_cycle;Signal;HPM_P1;HPM_P2
2022/07/08 00:02:12;;;;;;;3.40;2.37;;;23.50;49.90;;;;;;5023394;28;20199;-47
2022/07/08 00:04:38;;;;;;;2.80;2.03;;;23.40;49.70;;;;;;5028470;28;20285;-46
2022/07/08 00:07:03;;;;;;;4.40;1.60;;;23.20;49.90;;;;;;5023383;28;20857;-45
2022/07/08 00:09:30;;;;;;;3.53;1.90;;;23.10;50.50;;;;;;5028490;28;20229;-47
2022/07/08 00:11:56;;;;;;;6.60;1.63;;;23.10;49.70;;;;;;5026511;28;20540;-46
2022/07/08 00:14:23;;;;;;;4.70;1.63;;;23.20;49.60;;;;;;5029861;28;20486;-49
2022/07/08 00:16:49;;;;;;;3.43;1.60;;;23.20;49.60;;;;;;5022092;28;20503;-49
2022/07/08 00:19:19;;;;;;;3.47;2.10;;;23.00;48.00;;;;;;5028490;28;20502;-45
2022/07/08 00:21:45;;;;;;;5.10;2.30;;;23.00;48.80;;;;;;5018881;28;20451;-45
2022/07/08 00:24:12;;;;;;;5.80;2.30;;;23.00;48.80;;;;;;5027953;28;20441;-46
2022/07/08 00:26:39;;;;;;;5.00;2.07;;;23.10;47.80;;;;;;5027600;28;20436;-46
2022/07/08 00:29:05;;;;;;;6.30;1.80;;;23.10;47.80;;;;;;5024964;28;20440;-45
2022/07/08 00:31:32;;;;;;;9.07;2.60;;;23.00;47.40;;;;;;5018983;28;20436;-45
2022/07/08 00:33:58;;;;;;;7.87;2.50;;;23.00;47.50;;;;;;5023828;28;20453;-48
2022/07/08 00:36:24;;;;;;;1.80;1.70;;;22.80;47.40;;;;;;5021964;28;20480;-45
2022/07/08 00:38:50;;;;;;;5.03;2.10;;;22.70;47.50;;;;;;5026142;28;21314;-48
2022/07/08 00:41:16;;;;;;;3.40;2.07;;;22.60;48.90;;;;;;5022604;28;20547;-46
2022/07/08 00:43:44;;;;;;;3.00;1.73;;;22.80;48.20;;;;;;5026475;28;20272;-45
2022/07/08 00:46:11;;;;;;;8.13;2.17;;;22.70;48.80;;;;;;5020361;28;21094;-46
2022/07/08 00:48:39;;;;;;;6.07;2.03;;;22.90;47.00;;;;;;5026660;28;20467;-47
2022/07/08 00:51:11;;;;;;;3.50;1.57;;;22.80;47.00;;;;;;5029312;28;20440;-47
2022/07/08 00:53:40;;;;;;;7.10;2.00;;;22.90;46.70;;;;;;5026736;28;20506;-48
2022/07/08 00:56:07;;;;;;;3.90;1.90;;;22.80;46.30;;;;;;5027721;28;20428;-45
2022/07/08 00:58:33;;;;;;;5.57;2.53;;;22.70;48.40;;;;;;5032398;28;20498;-45
2022/07/08 01:00:59;;;;;;;3.50;2.07;;;22.80;47.40;;;;;;5028562;28;20440;-45
2022/07/08 01:03:25;;;;;;;6.70;2.37;;;23.00;46.10;;;;;;5027328;28;20459;-47
2022/07/08 01:05:50;;;;;;;4.13;2.40;;;23.10;47.60;;;;;;5027879;28;20193;-45
2022/07/08 01:08:16;;;;;;;4.00;2.10;;;23.10;46.50;;;;;;5030213;28;20559;-45
2022/07/08 01:10:42;;;;;;;5.03;2.30;;;23.20;46.80;;;;;;5027689;28;20197;-49
2022/07/08 01:13:08;;;;;;;3.50;2.53;;;23.20;46.40;;;;;;5021817;28;20551;-46
2022/07/08 01:15:34;;;;;;;6.40;3.10;;;23.20;46.00;;;;;;5031654;28;20444;-48
2022/07/08 01:18:00;;;;;;;4.30;2.30;;;23.20;46.20;;;;;;5026745;28;20312;-46
2022/07/08 01:20:25;;;;;;;4.83;2.70;;;23.20;46.00;;;;;;5027321;28;20197;-45
2022/07/08 01:22:51;;;;;;;7.10;2.80;;;23.20;47.20;;;;;;5026070;28;20220;-46
2022/07/08 01:25:17;;;;;;;5.40;2.50;;;23.20;45.70;;;;;;5024291;28;20201;-50
2022/07/08 01:27:43;;;;;;;7.70;2.83;;;22.90;45.50;;;;;;5024532;28;20443;-45
2022/07/08 01:30:09;;;;;;;4.40;2.73;;;22.90;47.10;;;;;;5022885;28;20463;-49
2022/07/08 01:32:40;;;;;;;5.20;2.77;;;22.90;46.30;;;;;;5025823;28;20193;-50
2022/07/08 01:35:06;;;;;;;3.63;2.70;;;22.90;46.10;;;;;;5028998;28;20449;-49
2022/07/08 01:37:32;;;;;;;6.20;3.23;;;23.00;47.80;;;;;;5029826;28;20584;-48
2022/07/08 01:39:57;;;;;;;6.17;2.93;;;23.10;46.90;;;;;;5028993;28;20447;-50
2022/07/08 01:42:23;;;;;;;7.23;3.20;;;23.20;46.30;;;;;;5026809;28;20208;-51
2022/07/08 01:44:48;;;;;;;3.87;3.00;;;23.20;45.70;;;;;;5032812;28;20224;-51
2022/07/08 01:47:14;;;;;;;4.70;2.60;;;23.00;46.40;;;;;;5028072;28;20300;-46
2022/07/08 01:49:40;;;;;;;3.83;2.60;;;23.00;46.30;;;;;;5024684;28;20491;-46
2022/07/08 01:52:07;;;;;;;8.17;3.20;;;23.00;45.90;;;;;;5023587;28;20196;-47
2022/07/08 01:54:33;;;;;;;7.90;3.10;;;22.90;46.30;;;;;;5020751;28;20225;-50
2022/07/08 01:57:14;;;;;;;2.90;2.30;;;22.90;45.90;;;;;;5024341;28;20622;-46
2022/07/08 01:59:43;;;;;;;4.47;2.87;;;22.80;45.90;;;;;;5029751;28;20435;-50
2022/07/08 02:02:10;;;;;;;3.87;2.67;;;22.90;47.20;;;;;;5027367;28;20454;-48
2022/07/08 02:04:36;;;;;;;4.27;2.70;;;22.90;46.00;;;;;;5026939;28;20491;-49
2022/07/08 02:07:02;;;;;;;4.33;2.70;;;22.80;46.60;;;;;;5033166;28;20439;-48
2022/07/08 02:09:28;;;;;;;4.27;2.63;;;22.80;46.60;;;;;;5028686;28;21072;-46
2022/07/08 02:14:38;;;;;;;5.40;2.57;;;22.80;45.40;;;;;;5027335;28;20204;-46
2022/07/08 02:17:04;;;;;;;5.40;2.43;;;22.80;47.00;;;;;;5031662;28;20464;-50
2022/07/08 02:19:30;;;;;;;6.17;2.97;;;22.70;46.50;;;;;;5031742;28;20197;-46
2022/07/08 02:21:56;;;;;;;7.27;2.80;;;22.70;46.50;;;;;;5030373;28;20394;-45
2022/07/08 02:24:22;;;;;;;6.53;2.63;;;22.70;47.70;;;;;;5028162;28;20538;-47
2022/07/08 02:26:47;;;;;;;3.50;2.37;;;22.80;46.10;;;;;;5028814;28;20545;-45
2022/07/08 02:29:13;;;;;;;3.50;2.20;;;22.80;47.10;;;;;;5021364;28;20272;-46
2022/07/08 02:31:39;;;;;;;3.10;2.00;;;22.90;45.70;;;;;;5029575;28;20194;-50
2022/07/08 02:34:04;;;;;;;4.27;2.40;;;23.00;45.70;;;;;;5028189;28;20555;-47
2022/07/08 02:36:30;;;;;;;7.30;2.20;;;23.00;46.30;;;;;;5031362;28;20202;-45
2022/07/08 02:38:55;;;;;;;4.50;2.20;;;23.00;45.00;;;;;;5032736;28;20566;-47
2022/07/08 02:41:21;;;;;;;3.27;2.50;;;22.90;45.20;;;;;;5029458;28;20196;-46
2022/07/08 02:43:47;;;;;;;4.90;2.30;;;22.80;45.70;;;;;;5030683;28;20676;-46
2022/07/08 02:46:13;;;;;;;11.33;2.87;;;22.70;45.80;;;;;;5027994;28;20224;-46
2022/07/08 02:48:39;;;;;;;4.87;2.47;;;22.70;46.40;;;;;;5031260;28;20240;-51
2022/07/08 02:51:05;;;;;;;3.10;2.30;;;22.60;46.80;;;;;;5030431;28;20436;-45
2022/07/08 02:53:30;;;;;;;5.33;2.30;;;22.60;45.50;;;;;;5027781;28;20194;-46
2022/07/08 02:55:57;;;;;;;4.83;2.30;;;22.50;46.70;;;;;;5030715;28;20429;-45
2022/07/08 02:58:22;;;;;;;3.80;2.23;;;22.50;46.00;;;;;;5033228;28;20233;-46
2022/07/08 03:00:48;;;;;;;4.93;2.30;;;22.40;47.50;;;;;;5031456;28;20443;-46
2022/07/08 03:03:14;;;;;;;7.17;2.43;;;22.50;46.10;;;;;;5028769;28;20390;-46
2022/07/08 03:05:39;;;;;;;3.80;2.47;;;22.40;46.10;;;;;;5025682;28;20271;-48
2022/07/08 03:08:05;;;;;;;6.73;3.17;;;22.30;46.60;;;;;;5027633;28;20193;-46
2022/07/08 03:10:30;;;;;;;7.90;3.57;;;22.30;46.50;;;;;;5023789;28;20679;-45
2022/07/08 03:12:56;;;;;;;4.60;2.70;;;22.20;46.50;;;;;;5027655;28;20288;-48
2022/07/08 03:15:22;;;;;;;7.83;2.50;;;22.00;47.20;;;;;;5026066;28;20266;-45
2022/07/08 03:17:48;;;;;;;6.20;2.67;;;22.00;47.10;;;;;;5027450;28;20225;-46
2022/07/08 03:20:13;;;;;;;3.83;2.63;;;21.80;46.90;;;;;;5029116;28;20197;-47
2022/07/08 03:22:39;;;;;;;8.00;3.07;;;21.70;47.20;;;;;;5022224;28;20538;-46
2022/07/08 03:25:05;;;;;;;5.13;2.80;;;21.70;47.30;;;;;;5028083;28;20189;-46
2022/07/08 03:27:31;;;;;;;8.20;2.40;;;21.60;48.50;;;;;;5021947;28;22176;-51
2022/07/08 03:29:56;;;;;;;12.73;2.70;;;21.70;47.90;;;;;;5023174;28;20440;-47
2022/07/08 03:32:23;;;;;;;5.40;2.50;;;21.70;47.60;;;;;;5023298;28;20531;-48
2022/07/08 03:34:49;;;;;;;5.53;2.67;;;21.70;48.60;;;;;;5022427;28;20202;-47
2022/07/08 03:37:15;;;;;;;6.10;2.60;;;21.80;48.10;;;;;;5024925;28;20492;-45
2022/07/08 03:39:40;;;;;;;6.77;2.63;;;21.90;48.00;;;;;;5025581;28;20490;-46
2022/07/08 03:42:06;;;;;;;4.30;2.50;;;21.90;48.20;;;;;;5028436;28;20246;-45
2022/07/08 03:44:32;;;;;;;8.57;2.60;;;21.90;48.40;;;;;;5027448;28;20200;-47
2022/07/08 03:46:57;;;;;;;2.50;1.83;;;21.90;48.60;;;;;;5025177;28;20205;-46
2022/07/08 03:49:23;;;;;;;3.70;2.33;;;21.90;48.90;;;;;;5029187;28;20198;-47
2022/07/08 03:51:49;;;;;;;4.43;2.70;;;22.00;48.60;;;;;;5022960;28;20189;-45
2022/07/08 03:54:14;;;;;;;4.57;2.40;;;22.10;48.50;;;;;;5024171;28;20200;-45
2022/07/08 03:56:40;;;;;;;4.27;2.07;;;22.10;48.20;;;;;;5022785;28;20891;-47
2022/07/08 03:59:05;;;;;;;3.20;2.20;;;22.20;49.00;;;;;;5028142;28;20201;-46
2022/07/08 04:01:31;;;;;;;4.73;2.57;;;22.30;48.30;;;;;;5021202;28;20254;-46
2022/07/08 04:03:56;;;;;;;4.03;2.13;;;22.30;47.50;;;;;;5021682;28;20200;-47
2022/07/08 04:06:22;;;;;;;3.67;2.33;;;22.40;48.10;;;;;;5027544;28;20280;-45
2022/07/08 04:08:48;;;;;;;3.50;2.30;;;22.50;47.50;;;;;;5026826;28;20759;-46
2022/07/08 04:11:14;;;;;;;5.17;2.30;;;22.50;47.80;;;;;;5024274;28;20224;-46
2022/07/08 04:13:39;;;;;;;5.07;2.60;;;22.50;47.70;;;;;;5020021;28;20189;-45
2022/07/08 04:16:08;;;;;;;3.77;2.10;;;22.50;47.60;;;;;;5024379;28;20661;-49
2022/07/08 04:18:33;;;;;;;4.57;2.47;;;22.50;47.30;;;;;;5023575;28;20267;-48
2022/07/08 04:20:59;;;;;;;5.40;2.33;;;22.50;47.60;;;;;;5025393;28;20448;-45
2022/07/08 04:23:25;;;;;;;6.53;2.43;;;22.60;48.10;;;;;;5026576;28;20197;-48
2022/07/08 04:25:50;;;;;;;5.97;2.07;;;22.70;47.90;;;;;;5026321;28;20194;-49
2022/07/08 04:28:17;;;;;;;5.63;2.57;;;22.70;47.90;;;;;;5020552;28;20251;-45
2022/07/08 04:30:42;;;;;;;3.93;2.37;;;22.80;47.90;;;;;;5025355;28;20201;-47
2022/07/08 04:33:08;;;;;;;4.53;2.63;;;22.80;47.80;;;;;;5019370;28;20491;-50
2022/07/08 04:35:36;;;;;;;4.53;2.00;;;22.80;47.60;;;;;;5015965;28;20200;-50
2022/07/08 04:38:02;;;;;;;4.47;2.50;;;22.90;47.80;;;;;;5022746;28;21251;-50
2022/07/08 04:40:28;;;;;;;4.43;2.40;;;23.00;47.60;;;;;;5025918;28;20518;-49
2022/07/08 04:42:54;;;;;;;4.33;2.50;;;23.00;47.60;;;;;;5027271;28;20523;-49
2022/07/08 04:45:21;;;;;;;3.90;2.90;;;23.00;47.50;;;;;;5019382;28;20450;-47
2022/07/08 04:47:47;;;;;;;5.33;2.70;;;23.00;47.40;;;;;;5023754;28;20436;-49
2022/07/08 04:50:13;;;;;;;4.10;2.20;;;23.10;47.30;;;;;;5025325;28;21225;-48
2022/07/08 04:52:39;;;;;;;3.50;2.33;;;23.20;47.10;;;;;;5028618;28;20229;-48
2022/07/08 04:55:05;;;;;;;7.90;2.97;;;23.20;47.10;;;;;;5031598;28;20451;-45
2022/07/08 04:57:33;;;;;;;6.20;2.70;;;23.30;47.70;;;;;;5028276;28;20315;-48
2022/07/08 05:00:00;;;;;;;5.20;2.43;;;23.30;47.00;;;;;;5025131;28;20531;-51
2022/07/08 05:02:27;;;;;;;4.63;2.37;;;23.30;47.00;;;;;;5026306;28;20479;-51
2022/07/08 05:04:52;;;;;;;5.17;2.33;;;23.30;46.90;;;;;;5025742;28;20951;-47
2022/07/08 05:07:18;;;;;;;6.80;2.10;;;23.40;46.70;;;;;;5022389;28;20446;-50
2022/07/08 05:09:44;;;;;;;3.03;2.20;;;23.30;47.00;;;;;;5026471;28;20303;-51
2022/07/08 05:12:10;;;;;;;9.17;2.33;;;23.50;45.70;;;;;;5026620;28;20200;-45
2022/07/08 05:14:36;;;;;;;5.90;2.67;;;23.40;46.00;;;;;;5026844;28;20451;-48
2022/07/08 05:17:01;;;;;;;6.37;2.20;;;23.30;46.80;;;;;;5027565;28;20205;-50
2022/07/08 05:19:27;;;;;;;4.53;2.70;;;23.30;46.30;;;;;;5025084;28;20201;-47
2022/07/08 05:21:53;;;;;;;3.00;2.20;;;23.40;45.40;;;;;;5021622;28;20197;-46
2022/07/08 05:24:18;;;;;;;4.80;1.80;;;23.40;45.00;;;;;;5023869;28;20492;-44
2022/07/08 05:26:44;;;;;;;4.20;2.10;;;23.50;46.50;;;;;;5018168;28;20926;-44
2022/07/08 05:29:10;;;;;;;6.33;2.20;;;23.60;47.00;;;;;;5018052;28;20708;-46
2022/07/08 05:31:35;;;;;;;4.90;2.10;;;23.70;46.60;;;;;;5026193;28;20193;-48
2022/07/08 05:34:01;;;;;;;9.33;2.50;;;23.90;46.10;;;;;;5026358;28;20684;-46
2022/07/08 05:36:27;;;;;;;5.13;2.23;;;24.00;45.70;;;;;;5027242;28;20197;-45
2022/07/08 05:38:52;;;;;;;5.33;2.10;;;24.10;45.40;;;;;;5025338;28;20229;-46
2022/07/08 05:41:18;;;;;;;3.87;2.80;;;24.10;45.10;;;;;;5024801;28;20201;-47
2022/07/08 05:43:44;;;;;;;4.77;2.20;;;24.20;44.50;;;;;;5028340;28;20220;-47
2022/07/08 05:46:09;;;;;;;3.13;1.87;;;24.30;44.40;;;;;;5020614;28;20284;-49
2022/07/08 05:48:35;;;;;;;5.63;2.30;;;24.30;44.20;;;;;;5025645;28;20628;-45
2022/07/08 05:51:00;;;;;;;3.97;2.27;;;24.40;44.10;;;;;;5024467;28;20196;-45
2022/07/08 05:53:26;;;;;;;8.87;2.00;;;24.40;43.90;;;;;;5026517;28;20258;-44
2022/07/08 05:55:52;;;;;;;7.23;2.30;;;24.50;43.80;;;;;;5027150;28;20193;-44
2022/07/08 05:58:17;;;;;;;3.30;2.30;;;24.50;43.60;;;;;;5025791;28;20434;-48
2022/07/08 06:00:43;;;;;;;4.90;1.90;;;24.60;43.60;;;;;;5026037;28;20734;-44
2022/07/08 06:03:08;;;;;;;3.90;1.90;;;24.60;43.60;;;;;;5021478;28;20190;-44
2022/07/08 06:05:34;;;;;;;5.33;2.20;;;24.60;43.60;;;;;;5024772;28;20608;-44
2022/07/08 06:08:00;;;;;;;8.17;1.83;;;24.70;43.50;;;;;;5026933;28;20208;-44
2022/07/08 06:10:28;;;;;;;4.40;2.70;;;24.70;43.50;;;;;;5024768;28;20229;-44
2022/07/08 06:12:54;;;;;;;8.00;2.40;;;24.80;43.40;;;;;;5028282;28;20250;-45
2022/07/08 06:15:23;;;;;;;4.97;2.10;;;24.80;43.30;;;;;;5024266;28;20448;-44
2022/07/08 06:17:48;;;;;;;2.30;1.63;;;24.90;43.20;;;;;;5030480;28;20239;-47
2022/07/08 06:20:14;;;;;;;3.47;2.30;;;24.90;43.20;;;;;;5029921;28;20935;-46
2022/07/08 06:22:40;;;;;;;2.03;1.70;;;24.90;43.00;;;;;;5028414;28;20197;-44
2022/07/08 06:25:06;;;;;;;4.30;2.13;;;24.90;43.00;;;;;;5027800;28;20193;-45
2022/07/08 06:27:32;;;;;;;6.87;2.20;;;25.00;42.90;;;;;;5027705;28;20502;-46
2022/07/08 06:29:57;;;;;;;3.20;1.80;;;25.00;42.90;;;;;;5025983;28;20444;-48
2022/07/08 06:32:23;;;;;;;4.97;2.10;;;25.10;42.80;;;;;;5023450;28;20351;-44
2022/07/08 06:34:49;;;;;;;4.90;1.93;;;25.10;42.20;;;;;;5028468;28;20189;-49
2022/07/08 06:37:15;;;;;;;6.30;2.30;;;25.10;42.00;;;;;;5029186;28;20209;-44
2022/07/08 06:39:41;;;;;;;2.97;1.97;;;25.10;42.00;;;;;;5025818;28;20255;-45
2022/07/08 06:42:07;;;;;;;4.97;2.33;;;25.10;41.80;;;;;;5021657;28;20826;-46
2022/07/08 06:44:32;;;;;;;4.27;1.70;;;25.20;41.90;;;;;;5012653;28;20680;-46
2022/07/08 06:46:58;;;;;;;7.13;1.90;;;25.20;41.50;;;;;;5022614;28;20519;-45
2022/07/08 06:49:24;;;;;;;3.30;1.40;;;25.20;41.50;;;;;;5027596;28;20216;-44
2022/07/08 06:51:49;;;;;;;6.13;2.20;;;25.20;40.90;;;;;;5029940;28;20208;-45
2022/07/08 06:56:59;;;;;;;3.73;1.97;;;25.20;41.10;;;;;;5028711;28;20271;-45
2022/07/08 06:59:25;;;;;;;8.10;2.20;;;25.20;40.90;;;;;;5026360;28;20444;-46
2022/07/08 07:01:52;;;;;;;3.57;1.50;;;25.30;40.70;;;;;;5025960;28;20193;-44
2022/07/08 07:04:18;;;;;;;3.83;1.30;;;25.30;40.50;;;;;;5026365;28;20197;-45
2022/07/08 07:06:43;;;;;;;3.87;1.73;;;25.40;40.90;;;;;;5012738;28;20482;-45
2022/07/08 07:09:09;;;;;;;6.93;1.80;;;25.40;40.60;;;;;;5023077;28;20693;-44
2022/07/08 07:11:36;;;;;;;6.00;1.90;;;25.50;40.70;;;;;;5031576;28;20197;-47
2022/07/08 07:14:01;;;;;;;2.50;1.60;;;25.60;40.40;;;;;;5031619;28;20232;-44
2022/07/08 07:16:27;;;;;;;2.43;1.60;;;25.60;40.40;;;;;;5031085;28;20447;-46
2022/07/08 07:18:53;;;;;;;5.97;2.13;;;25.60;40.80;;;;;;5023395;28;20224;-44
2022/07/08 07:21:18;;;;;;;3.43;2.40;;;25.70;39.80;;;;;;5022109;28;20200;-44
2022/07/08 07:23:44;;;;;;;2.30;1.30;;;25.70;38.30;;;;;;5027242;28;20190;-45
2022/07/08 07:26:10;;;;;;;2.03;1.60;;;25.80;38.40;;;;;;5012857;28;20194;-45
2022/07/08 07:28:35;;;;;;;2.03;1.43;;;25.80;37.80;;;;;;5027194;28;20201;-44
2022/07/08 07:31:01;;;;;;;3.40;1.53;;;25.80;37.60;;;;;;5026232;28;20634;-46
2022/07/08 07:33:27;;;;;;;3.43;1.50;;;25.90;37.90;;;;;;5026909;28;20197;-47
2022/07/08 07:35:53;;;;;;;4.20;1.73;;;25.90;37.60;;;;;;5030927;28;20274;-45
2022/07/08 07:38:18;;;;;;;3.43;1.57;;;25.90;37.60;;;;;;5027573;28;20579;-45
2022/07/08 07:40:44;;;;;;;4.13;1.50;;;26.00;37.90;;;;;;5030617;28;20193;-45
2022/07/08 07:43:09;;;;;;;5.43;1.80;;;26.10;38.00;;;;;;5028642;28;20193;-45
2022/07/08 07:45:35;;;;;;;3.10;1.90;;;26.10;37.80;;;;;;5030185;28;20189;-45
2022/07/08 07:48:00;;;;;;;3.10;1.63;;;26.10;37.50;;;;;;5029256;28;20266;-46
2022/07/08 07:50:26;;;;;;;4.67;1.73;;;26.10;36.90;;;;;;5028923;28;20530;-47
2022/07/08 07:52:53;;;;;;;2.33;1.37;;;26.10;36.60;;;;;;5018045;28;20197;-45
2022/07/08 07:55:18;;;;;;;2.83;1.30;;;26.10;36.60;;;;;;5026930;28;20444;-45
2022/07/08 07:57:46;;;;;;;1.80;1.40;;;26.00;35.70;;;;;;5028953;28;20492;-46
2022/07/08 08:00:13;;;;;;;2.33;1.43;;;26.10;36.30;;;;;;5026612;28;20284;-45
2022/07/08 08:02:39;;;;;;;4.13;1.80;;;26.10;36.90;;;;;;5028976;28;20977;-45
2022/07/08 08:05:05;;;;;;;3.20;2.13;;;26.10;36.50;;;;;;5027698;28;20440;-49
2022/07/08 08:07:31;;;;;;;6.60;1.37;;;26.10;36.50;;;;;;5024544;28;20436;-45
2022/07/08 08:09:57;;;;;;;3.50;1.70;;;26.20;36.30;;;;;;5025997;28;20501;-48
2022/07/08 08:12:22;;;;;;;3.00;1.50;;;26.20;35.90;;;;;;5025401;28;20284;-45
2022/07/08 08:14:48;;;;;;;3.50;1.87;;;26.20;36.00;;;;;;5034386;28;20189;-46
2022/07/08 08:17:13;;;;;;;4.47;1.57;;;26.30;35.80;;;;;;5033252;28;20288;-45
2022/07/08 08:19:39;;;;;;;2.07;1.37;;;26.30;35.40;;;;;;5026521;28;20197;-47
2022/07/08 08:22:04;;;;;;;5.43;1.50;;;26.30;35.70;;;;;;5028850;28;20660;-50
2022/07/08 08:24:30;;;;;;;6.17;1.97;;;26.30;35.90;;;;;;5023675;28;20275;-45
2022/07/08 08:26:56;;;;;;;2.70;1.53;;;26.30;35.80;;;;;;5028116;28;20209;-45
2022/07/08 08:29:21;;;;;;;4.20;1.50;;;26.40;35.40;;;;;;5015800;28;20292;-47
2022/07/08 08:31:47;;;;;;;3.53;1.80;;;26.50;35.20;;;;;;5031012;28;20233;-47
2022/07/08 08:34:13;;;;;;;2.33;1.17;;;26.50;34.80;;;;;;5030134;28;20189;-45
2022/07/08 08:36:38;;;;;;;3.13;1.67;;;26.50;34.20;;;;;;5029899;28;20189;-45
2022/07/08 08:39:04;;;;;;;3.67;1.57;;;26.60;34.80;;;;;;5027419;28;20650;-45
2022/07/08 08:41:30;;;;;;;4.03;1.73;;;26.70;35.00;;;;;;5027309;28;20258;-47
2022/07/08 08:43:55;;;;;;;3.93;1.57;;;26.80;35.10;;;;;;5010326;28;20197;-45
2022/07/08 08:46:24;;;;;;;3.03;2.20;;;26.90;35.10;;;;;;5026070;28;20504;-47
2022/07/08 08:48:55;;;;;;;4.37;1.50;;;26.90;35.10;;;;;;5030186;28;20239;-45
2022/07/08 08:51:22;;;;;;;2.07;1.40;;;27.00;34.90;;;;;;5026903;28;20445;-46
2022/07/08 08:53:48;;;;;;;3.33;1.67;;;27.00;34.50;;;;;;5027649;28;20456;-50
2022/07/08 08:56:16;;;;;;;4.17;1.50;;;27.00;34.40;;;;;;5022539;28;20447;-47
2022/07/08 08:58:46;;;;;;;2.50;1.53;;;27.00;34.00;;;;;;5025333;28;21379;-46
2022/07/08 09:01:14;;;;;;;3.73;1.83;;;26.90;34.00;;;;;;5024913;28;20693;-45
2022/07/08 09:03:39;;;;;;;4.40;1.93;;;26.80;34.00;;;;;;5027652;28;20942;-47
2022/07/08 09:06:06;;;;;;;1.80;1.50;;;26.80;34.00;;;;;;5028030;28;20451;-45
2022/07/08 09:08:32;;;;;;;3.43;1.47;;;26.90;34.30;;;;;;5027695;28;20189;-46
2022/07/08 09:10:58;;;;;;;3.10;1.30;;;26.80;33.90;;;;;;5027640;28;20448;-46
2022/07/08 09:13:25;;;;;;;3.33;1.13;;;26.80;33.50;;;;;;5024074;28;20441;-45
2022/07/08 09:15:54;;;;;;;4.20;1.50;;;26.90;34.90;;;;;;5029145;28;20494;-45
2022/07/08 09:18:22;;;;;;;3.30;1.57;;;27.00;34.10;;;;;;5027848;28;20530;-45
2022/07/08 09:20:50;;;;;;;4.53;2.07;;;27.00;33.90;;;;;;5026554;28;21245;-46
2022/07/08 09:23:20;;;;;;;3.87;1.37;;;27.10;34.30;;;;;;5014417;28;20436;-48
2022/07/08 09:25:48;;;;;;;3.20;1.57;;;27.20;33.90;;;;;;5022570;28;20444;-46
2022/07/08 09:28:35;;;;;;;5.23;1.67;;;27.20;34.40;;;;;;5024787;28;20827;-46
2022/07/08 09:31:12;;;;;;;8.13;1.70;;;27.20;34.30;;;;;;5025554;28;20423;-44
2022/07/08 09:33:39;;;;;;;2.40;1.43;;;27.20;33.60;;;;;;5021027;28;20449;-45
2022/07/08 09:36:07;;;;;;;3.50;1.67;;;27.30;33.60;;;;;;5024610;28;20447;-45
2022/07/08 09:38:37;;;;;;;2.13;1.30;;;27.30;33.80;;;;;;5024036;28;20572;-46
2022/07/08 09:41:04;;;;;;;3.93;1.60;;;27.30;33.50;;;;;;5020793;28;20444;-44
2022/07/08 09:43:31;;;;;;;2.43;1.40;;;27.30;34.00;;;;;;5027960;28;20444;-47
2022/07/08 09:46:07;;;;;;;2.33;1.43;;;27.40;33.60;;;;;;5026234;28;20515;-47
2022/07/08 09:48:33;;;;;;;4.53;1.60;;;27.40;33.50;;;;;;5019385;28;20445;-47
2022/07/08 09:51:00;;;;;;;4.63;1.60;;;27.40;33.70;;;;;;5027926;28;20523;-46
2022/07/08 09:53:28;;;;;;;2.47;1.33;;;27.50;33.90;;;;;;5029028;28;20489;-48
2022/07/08 09:55:55;;;;;;;3.83;2.27;;;27.50;34.30;;;;;;5021508;28;20448;-46
2022/07/08 09:58:23;;;;;;;6.83;2.00;;;27.50;33.50;;;;;;5023605;28;20530;-44
2022/07/08 10:00:51;;;;;;;2.30;1.73;;;27.60;33.80;;;;;;5027731;28;20526;-45
2022/07/08 10:03:18;;;;;;;3.07;1.53;;;27.70;34.20;;;;;;5029789;28;20454;-44
2022/07/08 10:05:45;;;;;;;6.70;1.77;;;27.80;33.50;;;;;;5028809;28;20527;-43
2022/07/08 10:08:11;;;;;;;3.60;2.13;;;27.80;33.60;;;;;;5029298;28;20539;-44
2022/07/08 10:10:42;;;;;;;4.43;1.90;;;27.90;33.40;;;;;;5031616;28;20490;-45
2022/07/08 10:13:08;;;;;;;1.53;1.30;;;28.00;33.60;;;;;;5031079;28;20538;-44
2022/07/08 10:15:35;;;;;;;3.57;1.70;;;28.10;32.70;;;;;;5030815;28;20530;-44
2022/07/08 10:18:20;;;;;;;3.13;1.43;;;28.00;32.40;;;;;;5029823;28;20260;-45
2022/07/08 10:20:57;;;;;;;3.20;1.77;;;28.10;33.20;;;;;;5031622;28;20514;-44
2022/07/08 10:23:28;;;;;;;6.00;1.60;;;28.20;33.10;;;;;;5027501;28;20923;-45
2022/07/08 10:25:58;;;;;;;2.37;1.40;;;28.20;33.00;;;;;;5025827;28;20439;-44
2022/07/08 10:28:33;;;;;;;3.37;1.30;;;28.30;32.50;;;;;;5028511;28;20440;-48
2022/07/08 10:30:59;;;;;;;5.80;1.83;;;28.40;32.40;;;;;;5021864;28;20443;-47
2022/07/08 10:33:26;;;;;;;2.57;1.67;;;28.50;32.20;;;;;;5023863;28;21180;-47
2022/07/08 10:36:06;;;;;;;2.77;1.70;;;28.50;32.00;;;;;;5030768;28;20750;-46
2022/07/08 10:38:37;;;;;;;2.70;1.70;;;28.50;31.80;;;;;;5031432;28;20495;-44
2022/07/08 10:41:06;;;;;;;3.60;1.37;;;28.60;31.80;;;;;;5027688;28;20448;-47
2022/07/08 10:43:32;;;;;;;4.60;1.57;;;28.70;31.20;;;;;;5016955;28;20448;-45
2022/07/08 10:46:17;;;;;;;2.33;1.40;;;28.70;32.20;;;;;;5028915;28;20444;-45
2022/07/08 10:48:46;;;;;;;2.73;1.60;;;28.80;32.60;;;;;;5029221;28;20243;-49
2022/07/08 10:51:29;;;;;;;2.90;1.43;;;28.90;32.50;;;;;;5030425;28;20587;-44
2022/07/08 10:54:02;;;;;;;2.73;1.30;;;29.10;31.40;;;;;;5029257;28;20448;-45
2022/07/08 10:56:53;;;;;;;5.90;1.50;;;29.10;31.20;;;;;;5025338;28;20440;-45
2022/07/08 10:59:22;;;;;;;2.37;1.57;;;29.10;32.20;;;;;;5021987;28;20997;-45
2022/07/08 11:01:52;;;;;;;2.77;1.10;;;29.30;31.80;;;;;;5022376;28;20523;-45
2022/07/08 11:04:35;;;;;;;2.70;1.10;;;29.30;32.00;;;;;;5027868;28;20464;-46
2022/07/08 11:07:37;;;;;;;2.93;1.27;;;29.40;32.20;;;;;;5029481;28;20460;-47
2022/07/08 11:10:08;;;;;;;2.90;1.20;;;29.50;31.70;;;;;;5019964;28;20490;-45
2022/07/08 11:12:39;;;;;;;1.60;1.40;;;29.60;32.10;;;;;;5030359;28;20505;-46
2022/07/08 11:15:13;;;;;;;2.27;1.23;;;29.80;32.10;;;;;;5027316;28;20444;-46
2022/07/08 11:17:41;;;;;;;2.70;1.50;;;30.00;32.00;;;;;;5026890;28;20531;-44
2022/07/08 11:20:12;;;;;;;3.50;1.00;;;30.10;31.70;;;;;;5023848;28;21092;-46
2022/07/08 11:22:40;;;;;;;2.03;1.60;;;30.20;31.50;;;;;;5031706;28;20548;-45
2022/07/08 11:25:12;;;;;;;3.23;1.27;;;30.30;31.40;;;;;;5025839;28;20523;-45
2022/07/08 11:27:37;;;;;;;2.60;1.40;;;30.30;31.40;;;;;;5029544;28;20782;-47
2022/07/08 11:30:08;;;;;;;2.50;1.57;;;30.40;31.20;;;;;;5026059;28;20530;-46
2022/07/08 11:32:34;;;;;;;2.97;1.60;;;30.50;30.80;;;;;;5027368;28;20272;-46
2022/07/08 11:34:59;;;;;;;3.33;1.40;;;30.50;30.80;;;;;;5029249;28;20555;-46
2022/07/08 11:37:25;;;;;;;3.47;1.43;;;30.60;29.90;;;;;;5028894;28;20231;-46
2022/07/08 11:39:51;;;;;;;1.37;1.27;;;30.70;29.80;;;;;;5028512;28;20644;-47
2022/07/08 11:42:17;;;;;;;2.13;1.60;;;30.70;30.20;;;;;;5024304;28;20207;-46
2022/07/08 11:44:44;;;;;;;3.10;1.20;;;30.80;29.90;;;;;;5027041;28;20527;-45
2022/07/08 11:47:13;;;;;;;2.87;1.70;;;30.70;30.00;;;;;;5028879;28;20212;-45
2022/07/08 11:49:43;;;;;;;3.43;1.40;;;30.80;30.00;;;;;;5029904;28;20508;-47
2022/07/08 11:52:10;;;;;;;6.63;1.50;;;30.90;30.00;;;;;;5025733;28;20447;-49
2022/07/08 11:54:35;;;;;;;3.40;1.80;;;30.90;30.40;;;;;;5024072;28;20506;-48
2022/07/08 11:57:02;;;;;;;2.00;1.40;;;30.90;29.50;;;;;;5029390;28;20452;-46
2022/07/08 11:59:34;;;;;;;2.70;1.40;;;30.90;29.30;;;;;;5027250;28;20190;-47
2022/07/08 12:02:01;;;;;;;5.00;1.83;;;30.90;30.00;;;;;;5024888;28;20452;-50
2022/07/08 12:04:27;;;;;;;2.90;1.30;;;31.00;30.20;;;;;;5016250;28;21049;-46
2022/07/08 12:06:58;;;;;;;1.57;1.40;;;31.20;30.10;;;;;;5023374;28;20451;-49
2022/07/08 12:09:25;;;;;;;2.50;1.70;;;31.20;30.10;;;;;;5026582;28;20308;-48
2022/07/08 12:11:56;;;;;;;2.27;1.27;;;31.30;29.90;;;;;;5030337;28;20484;-47
2022/07/08 12:14:23;;;;;;;4.47;1.23;;;31.30;29.50;;;;;;5029573;28;20893;-49
2022/07/08 12:16:51;;;;;;;2.17;1.10;;;31.40;29.30;;;;;;5028952;28;20451;-48
2022/07/08 12:19:39;;;;;;;2.63;1.20;;;31.40;29.40;;;;;;5027135;28;20467;-45
2022/07/08 12:22:12;;;;;;;1.70;1.37;;;31.40;29.20;;;;;;5029726;28;20460;-47
2022/07/08 12:24:41;;;;;;;3.43;1.33;;;31.50;29.20;;;;;;5027856;28;20970;-44
2022/07/08 12:27:28;;;;;;;2.50;1.20;;;31.60;29.40;;;;;;5021969;28;20476;-48
2022/07/08 12:30:03;;;;;;;5.33;1.57;;;31.70;29.90;;;;;;5026350;28;20455;-48
2022/07/08 12:32:37;;;;;;;3.13;1.53;;;31.70;29.70;;;;;;5027347;28;20451;-47
2022/07/08 12:35:03;;;;;;;1.97;1.50;;;31.90;29.60;;;;;;5027457;28;20467;-49
2022/07/08 12:37:29;;;;;;;3.37;2.30;;;31.90;29.70;;;;;;5021509;28;20484;-50
2022/07/08 12:39:54;;;;;;;2.50;1.40;;;31.90;29.90;;;;;;5021859;28;20223;-49
2022/07/08 12:42:24;;;;;;;1.97;1.33;;;31.90;28.60;;;;;;5020269;28;20225;-47
2022/07/08 12:44:50;;;;;;;2.30;1.30;;;31.80;28.10;;;;;;5025519;28;20201;-51
2022/07/08 12:47:16;;;;;;;4.53;2.07;;;32.00;28.00;;;;;;5025241;28;20581;-47
2022/07/08 12:49:46;;;;;;;3.27;1.63;;;32.10;28.60;;;;;;5024902;28;20459;-49
2022/07/08 12:52:13;;;;;;;1.93;1.50;;;32.20;28.20;;;;;;5025298;28;20635;-47
2022/07/08 12:54:39;;;;;;;2.23;1.70;;;32.30;27.50;;;;;;5024144;28;20927;-46